Terminal Aerodrome Forecast
Issued by NWS

Home | Current Version | Previous Version | Text Only | Print | Product List | Glossary On
Versions: 1 2 3 4 5 6 7 8 9 10 11 12 13 14 15 16
000
FTUS46 KSTO 272300
TAFSAC
TAF
KSAC 272328Z 2800/2824 VRB03KT P6SM SCT200
     FM281000 VRB04KT 4SM BR BKN200
      TEMPO 2812/2816 1SM BR FEW002
     FM282000 18005KT 6SM HZ BKN150=

USA.gov is the U.S. government's official web portal to all federal, state and local government web resources and services.